Latest Weather Observations for Kowen Forest

IDN60801

Issued at 3:03 pm EST Thursday 28 May 2020 (issued every 10 minutes, with the page automatically refreshed every 10 minutes)

About weather observations | Map of weather stations | Latest weather observations for NSW | Other Formats
Station Details ID: 250071 Name: KOWEN FOREST (PCS) Lat: -35.31 Lon: 149.32 Height: 720.0 m

Portable automatic weather stations (PAWS) are operated by other organisations, such as Fire and Emergency Services, and are included here by agreement. Portable stations may be deployed to a location for a short period and their location may be subject to change without notice. Wind observations from these stations are provided from heights of either three (3) or ten (10) metres above ground level (AGL).

Data from the previous 72 hours. | See also: Recent months for locations in New South Wales
Date/Time
EST
Temp
°C
App
Temp
°C
Dew
Point
°C
Rel
Hum
%
Delta-T
°C
Wind Press
QNH
hPa
Press
MSL
hPa
Rain since
9am
mm
Dir  Spd
km/h
Gust
km/h
Spd
kts
Gust
kts
28/02:40pm 15.2 12.0 6.7 57 4.3 WNW 13 17 7 9 - - 0.0
28/02:30pm 15.3 12.0 6.6 56 4.4 W 13 15 7 8 - - 0.0
28/02:20pm 15.0 11.3 6.3 56 4.4 W 15 19 8 10 - - 0.0
28/02:10pm 15.0 11.3 6.1 55 4.5 W 15 17 8 9 - - 0.0
28/02:00pm 14.8 11.2 6.6 58 4.1 W 15 19 8 10 - - 0.0
28/01:50pm 14.7 11.0 6.4 57 4.2 W 15 17 8 9 - - 0.0
28/01:40pm 14.8 11.1 6.2 56 4.3 W 15 19 8 10 - - 0.0
28/01:30pm 15.1 12.2 6.5 56 4.3 W 11 13 6 7 - - 0.0
28/01:20pm 15.0 12.5 6.6 57 4.2 W 9 11 5 6 - - 0.0
28/01:10pm 14.6 11.7 6.6 58 4.0 W 11 13 6 7 - - 0.0
28/01:00pm 14.6 12.0 5.9 56 4.3 W 9 13 5 7 - - 0.0
28/12:50pm 14.3 11.6 5.4 55 4.4 W 9 13 5 7 - - 0.0
28/12:40pm 14.3 11.2 5.5 55 4.3 WNW 11 13 6 7 - - 0.0
28/12:30pm 14.2 10.8 5.8 57 4.2 W 13 15 7 8 - - 0.0
28/12:20pm 14.2 11.2 5.9 57 4.1 W 11 13 6 7 - - 0.0
28/12:10pm 14.3 11.9 6.8 60 3.8 W 9 11 5 6 - - 0.0
28/12:00pm 13.9 11.9 7.2 64 3.4 WSW 7 11 4 6 - - 0.0
28/11:50am 14.0 12.5 8.3 68 3.0 WSW 6 11 3 6 - - 0.0
28/11:40am 13.3 11.8 8.6 73 2.4 SSW 6 7 3 4 - - 0.0
28/11:30am 12.8 11.4 8.7 76 2.1 SW 6 9 3 5 - - 0.0
28/11:20am 11.9 11.0 9.1 83 1.5 SW 4 6 2 3 - - 0.0
28/11:10am 11.1 9.6 9.1 87 1.0 SSW 7 7 4 4 - - 0.0
28/11:00am 10.3 8.4 9.0 92 0.7 SW 9 11 5 6 - - 0.0
28/10:50am 10.2 8.0 9.3 94 0.5 SSW 11 11 6 6 - - 0.0
28/10:40am 9.8 7.9 9.2 96 0.3 SSW 9 13 5 7 - - 0.0
28/10:30am 10.0 7.9 9.7 98 0.2 S 11 13 6 7 - - 0.0
28/10:20am 10.0 8.8 9.7 98 0.2 SW 6 6 3 3 - - 0.0
28/10:10am 9.2 8.6 9.0 99 0.1 SW 2 4 1 2 - - 0.0
28/10:00am 8.6 7.5 8.4 99 0.1 SW 4 6 2 3 - - 0.0
28/09:50am 8.3 7.5 8.2 99 0.0 S 2 2 1 1 - - 0.0
28/09:40am 7.5 6.5 7.3 99 0.1 ESE 2 4 1 2 - - 0.0
28/09:30am 6.8 5.7 6.8 100 0.0 ENE 2 2 1 1 - - 0.0
28/09:20am 6.5 4.9 6.4 99 0.0 NNW 4 4 2 2 - - 0.0
28/09:10am 6.0 4.3 5.9 99 0.0 N 4 6 2 3 - - 0.0
28/09:00am 5.7 4.0 5.7 100 0.0 N 4 4 2 2 - - 0.0
28/08:50am 5.4 4.0 5.4 100 0.0 NNE 2 4 1 2 - - 0.0
28/08:40am 5.2 3.7 5.2 100 0.0 N 2 4 1 2 - - 0.0
28/08:30am 5.2 3.7 5.1 99 0.0 S 2 4 1 2 - - 0.0
28/08:20am 4.8 3.3 4.8 100 0.0 S 2 6 1 3 - - 0.0
28/08:10am 4.6 2.3 4.6 100 0.0 S 6 7 3 4 - - 0.0
28/08:00am 4.1 1.5 4.0 99 0.0 SSW 7 7 4 4 - - 0.0
28/07:50am 4.0 1.5 4.0 100 0.0 SSW 6 7 3 4 - - 0.0
28/07:40am 4.1 2.4 4.1 100 0.0 W 2 4 1 2 - - 0.0
28/07:30am 3.9 1.8 3.9 100 0.0 NNW 4 4 2 2 - - 0.0
28/07:20am 3.7 1.9 3.6 99 0.0 NNE 2 4 1 2 - - 0.0
28/07:10am 3.5 1.3 3.5 100 0.0 S 4 6 2 3 - - 0.0
28/07:00am 3.7 1.0 3.7 100 0.0 SSW 7 9 4 5 - - 0.0
28/06:50am 4.8 3.3 4.8 100 0.0 NNE 2 4 1 2 - - 0.0
28/06:40am 4.7 2.4 4.7 100 0.0 NE 6 7 3 4 - - 0.0
28/06:30am 4.3 1.9 4.3 100 0.0 NE 6 6 3 3 - - 0.0
28/06:20am 3.7 1.6 3.7 100 0.0 NE 4 4 2 2 - - 0.0
28/06:10am 3.5 1.3 3.5 100 0.0 NNE 4 6 2 3 - - 0.0
28/06:00am 3.2 1.0 3.2 100 0.0 NNE 4 4 2 2 - - 0.0
28/05:50am 3.0 1.1 3.0 100 0.0 N 2 4 1 2 - - 0.0
28/05:40am 3.0 1.1 2.9 99 0.0 SSW 2 2 1 1 - - 0.0
28/05:30am 2.9 1.0 2.8 99 0.0 ENE 2 2 1 1 - - 0.0
28/05:20am 2.6 0.3 2.6 100 0.0 ENE 4 4 2 2 - - 0.0
28/05:10am 2.7 0.4 2.6 99 0.0 NE 4 6 2 3 - - 0.0
28/05:00am 2.5 0.5 2.4 99 0.0 NE 2 4 1 2 - - 0.0
28/04:50am 2.4 0.4 2.4 100 0.0 SSE 2 4 1 2 - - 0.0
28/04:40am 2.4 0.4 2.3 99 0.0 ENE 2 4 1 2 - - 0.0
28/04:30am 2.4 -0.4 2.3 99 0.0 NE 6 6 3 3 - - 0.0
28/04:20am 2.9 0.6 2.8 99 0.0 ENE 4 4 2 2 - - 0.0
28/04:10am 3.2 1.0 3.1 99 0.0 NE 4 6 2 3 - - 0.0
28/04:00am 3.3 1.1 3.2 99 0.0 NE 4 4 2 2 - - 0.0
28/03:50am 3.2 1.0 3.1 99 0.0 NE 4 6 2 3 - - 0.0
28/03:40am 2.7 0.8 2.6 99 0.0 N 2 4 1 2 - - 0.0
28/03:30am 2.2 -0.2 2.1 99 0.0 NNW 4 4 2 2 - - 0.0
28/03:20am 3.1 1.2 3.0 99 0.0 S 2 4 1 2 - - 0.0
28/03:10am 2.7 0.8 2.6 99 0.0 SSW 2 4 1 2 - - 0.0
28/03:00am 2.9 1.0 2.8 99 0.0 NNW 2 2 1 1 - - 0.0
28/02:50am 3.1 1.2 3.0 99 0.0 NNW 2 2 1 1 - - 0.0
28/02:40am 3.2 1.3 3.1 99 0.0 N 2 2 1 1 - - 0.0
28/02:30am 3.3 1.5 3.2 99 0.0 NE 2 6 1 3 - - 0.0
28/02:20am 3.9 1.4 3.9 100 0.0 ENE 6 6 3 3 - - 0.0
28/02:10am 3.8 1.3 3.7 99 0.0 NE 6 6 3 3 - - 0.0
28/02:00am 3.7 1.2 3.6 99 0.0 NE 6 6 3 3 - - 0.0
28/01:50am 2.9 0.0 2.8 99 0.0 NE 7 7 4 4 - - 0.0
28/01:40am 2.2 -0.6 2.1 99 0.0 NE 6 7 3 4 - - 0.0
28/01:30am 1.9 -0.2 1.7 99 0.1 NE 2 4 1 2 - - 0.0
28/01:20am 1.8 -0.3 1.6 99 0.1 ENE 2 2 1 1 - - 0.0
28/01:10am 2.6 0.6 2.5 99 0.0 SE 2 2 1 1 - - 0.0
28/01:00am 3.2 1.0 3.1 99 0.0 ENE 4 4 2 2 - - 0.0
28/12:50am 3.1 0.8 2.9 99 0.1 ENE 4 4 2 2 - - 0.0
28/12:40am 3.7 1.5 3.6 99 0.0 NE 4 6 2 3 - - 0.0
28/12:30am 3.6 1.1 3.5 99 0.0 NE 6 7 3 4 - - 0.0
28/12:20am 3.2 0.6 3.0 99 0.1 NNE 6 7 3 4 - - 0.0
28/12:10am 3.9 1.8 3.7 99 0.1 NNE 4 6 2 3 - - 0.0
28/12:00am 3.3 0.5 3.1 99 0.1 NNE 7 9 4 5 - - 0.0
 
Date/Time
EST
Temp
°C
App
Temp
°C
Dew
Point
°C
Rel
Hum
%
Delta-T
°C
Wind Press
QNH
hPa
Press
MSL
hPa
Rain since
9am
mm
Dir  Spd
km/h
Gust
km/h
Spd
kts
Gust
kts
27/11:50pm 3.2 1.0 3.1 99 0.0 NE 4 7 2 4 - - 0.0
27/11:40pm 4.4 2.0 4.3 99 0.0 NE 6 7 3 4 - - 0.0
27/11:30pm 3.9 1.2 3.8 99 0.0 NE 7 7 4 4 - - 0.0
27/11:20pm 4.5 2.5 4.3 99 0.1 NE 4 6 2 3 - - 0.0
27/11:10pm 4.8 2.9 4.7 99 0.0 NE 4 4 2 2 - - 0.0
27/11:00pm 5.0 3.1 4.9 99 0.0 ENE 4 4 2 2 - - 0.0
27/10:50pm 4.7 2.7 4.5 99 0.1 ENE 4 4 2 2 - - 0.0
27/10:40pm 4.4 2.4 4.2 99 0.1 NNE 4 6 2 3 - - 0.0
27/10:30pm 4.3 2.2 4.1 99 0.1 NE 4 6 2 3 - - 0.0
27/10:20pm 4.1 2.4 3.9 99 0.1 N 2 6 1 3 - - 0.0
27/10:10pm 4.4 2.8 4.3 99 0.0 SE 2 2 1 1 - - 0.0
27/10:00pm 4.7 3.1 4.5 99 0.1 ESE 2 2 1 1 - - 0.0
27/09:50pm 5.0 3.5 4.8 99 0.1 NE 2 2 1 1 - - 0.0
27/09:40pm 4.3 2.6 4.1 99 0.1 NNW 2 4 1 2 - - 0.0
27/09:30pm 4.1 2.0 3.8 98 0.1 NNW 4 4 2 2 - - 0.0
27/09:20pm 4.2 2.1 4.0 99 0.1 NNE 4 6 2 3 - - 0.0
27/09:10pm 4.2 2.5 3.9 98 0.1 NNE 2 2 1 1 - - 0.0
27/09:00pm 4.0 2.2 3.7 98 0.1 WSW 2 4 1 2 - - 0.0
27/08:50pm 4.5 2.8 4.2 98 0.1 SSE 2 4 1 2 - - 0.0
27/08:40pm 4.4 2.3 4.1 98 0.1 NNE 4 6 2 3 - - 0.0
27/08:30pm 4.6 3.0 4.3 98 0.1 ENE 2 4 1 2 - - 0.0
27/08:20pm 5.2 3.7 4.9 98 0.1 NE 2 2 1 1 - - 0.0
27/08:10pm 5.2 3.7 4.9 98 0.1 ENE 2 4 1 2 - - 0.0
27/08:00pm 4.9 2.9 4.4 97 0.2 NNE 4 6 2 3 - - 0.0
27/07:50pm 5.1 3.5 4.7 97 0.2 NE 2 4 1 2 - - 0.0
27/07:40pm 6.0 3.9 5.6 97 0.2 NE 6 6 3 3 - - 0.0
27/07:30pm 6.2 4.5 5.8 97 0.2 ENE 4 4 2 2 - - 0.0
27/07:20pm 6.7 5.1 6.3 97 0.2 S 4 6 2 3 - - 0.0
27/07:10pm 7.0 5.1 6.5 97 0.2 WSW 6 7 3 4 - - 0.0
27/07:00pm 6.9 5.7 6.5 97 0.2 ENE 2 4 1 2 - - 0.0
27/06:50pm 6.7 5.0 6.1 96 0.3 NE 4 4 2 2 - - 0.0
27/06:40pm 7.2 5.7 6.6 96 0.3 NE 4 4 2 2 - - 0.0
27/06:30pm 7.5 5.6 6.9 96 0.3 NE 6 6 3 3 - - 0.0
27/06:20pm 7.6 6.1 7.0 96 0.3 NE 4 6 2 3 - - 0.0
27/06:10pm 7.5 6.0 6.9 96 0.3 NNE 4 4 2 2 - - 0.0
27/06:00pm 7.5 6.0 6.9 96 0.3 NNE 4 4 2 2 - - 0.0
27/05:50pm 7.8 6.4 7.1 95 0.3 ENE 4 6 2 3 - - 0.0
27/05:40pm 8.1 6.7 7.3 95 0.4 NE 4 7 2 4 - - 0.0
27/05:30pm 8.4 7.1 7.5 94 0.4 ENE 4 4 2 2 - - 0.0
27/05:20pm 8.5 7.2 7.7 95 0.4 NE 4 4 2 2 - - 0.0
27/05:10pm 8.7 7.4 7.7 93 0.5 NNE 4 6 2 3 - - 0.0
27/05:00pm 9.1 7.9 7.9 92 0.6 ENE 4 6 2 3 - - 0.0
27/04:50pm 9.8 8.6 8.1 89 0.9 ENE 4 6 2 3 - - 0.0
27/04:40pm 10.5 9.4 8.3 86 1.1 NE 4 4 2 2 - - 0.0
27/04:30pm 10.7 9.5 7.9 83 1.4 NNE 4 6 2 3 - - 0.0
27/04:20pm 11.1 9.5 8.2 82 1.5 N 6 6 3 3 - - 0.0
27/04:10pm 11.6 10.0 8.1 79 1.8 NNW 6 7 3 4 - - 0.0
27/04:00pm 11.8 10.2 8.2 78 1.8 NNW 6 9 3 5 - - 0.0
27/03:50pm 12.2 10.4 7.8 74 2.2 NNW 7 9 4 5 - - 0.0
27/03:40pm 12.6 10.8 8.0 73 2.4 NNW 7 9 4 5 - - 0.0
27/03:30pm 12.7 10.8 7.6 71 2.6 NW 7 9 4 5 - - 0.0
27/03:20pm 13.1 11.4 7.5 69 2.8 NNW 6 7 3 4 - - 0.0
27/03:10pm 12.3 10.4 7.5 72 2.4 NNW 7 9 4 5 - - 0.0
27/03:00pm 12.3 10.0 7.3 71 2.5 NNW 9 9 5 5 - - 0.0
27/02:50pm 12.6 10.3 7.4 70 2.6 NW 9 9 5 5 - - 0.0
27/02:40pm 12.9 10.6 7.4 69 2.8 NW 9 11 5 6 - - 0.0
27/02:30pm 13.1 10.6 6.6 64 3.2 NW 9 11 5 6 - - 0.0
27/02:20pm 13.3 10.9 7.2 66 3.1 WNW 9 13 5 7 - - 0.0
27/02:10pm 13.5 11.4 6.7 63 3.4 WNW 7 9 4 5 - - 0.0
27/02:00pm 13.0 11.1 7.4 69 2.8 NNW 7 9 4 5 - - 0.0
27/01:50pm 12.6 10.8 7.1 69 2.8 NNW 6 7 3 4 - - 0.0
27/01:40pm 12.6 10.6 7.1 69 2.8 NNW 7 11 4 6 - - 0.0
27/01:30pm 12.9 10.8 6.8 66 3.1 NNW 7 9 4 5 - - 0.0
27/01:20pm 12.7 10.3 7.2 69 2.8 N 9 11 5 6 - - 0.0
27/01:10pm 13.0 10.6 7.0 67 3.0 NNW 9 11 5 6 - - 0.0
27/01:00pm 13.5 11.3 7.7 68 3.0 NNW 9 13 5 7 - - 0.0
27/12:50pm 14.2 12.5 7.5 64 3.4 W 6 9 3 5 - - 0.0
27/12:40pm 13.9 11.8 8.4 69 2.9 W 9 11 5 6 - - 0.0
27/12:30pm 13.6 11.9 8.2 70 2.8 WNW 7 9 4 5 - - 0.0
27/12:20pm 13.3 11.2 8.1 71 2.7 W 9 13 5 7 - - 0.0
27/12:10pm 13.8 12.6 8.2 69 2.9 W 4 7 2 4 - - 0.0
27/12:00pm 13.2 12.3 7.6 69 2.9 W 2 4 1 2 - - 0.0
27/11:50am 12.6 11.2 7.1 69 2.8 WSW 4 6 2 3 - - 0.0
27/11:40am 12.2 10.8 7.2 71 2.5 SSW 4 9 2 5 - - 0.0
27/11:30am 12.4 11.0 7.3 71 2.6 S 4 6 2 3 - - 0.0
27/11:20am 12.4 10.4 7.3 71 2.6 SSW 7 9 4 5 - - 0.0
27/11:10am 12.3 10.8 7.0 70 2.7 SW 4 6 2 3 - - 0.0
27/11:00am 11.6 10.5 7.1 74 2.2 SSW 2 4 1 2 - - 0.0
27/10:50am 11.5 10.0 7.0 74 2.2 SW 4 6 2 3 - - 0.0
27/10:40am 11.6 9.8 7.0 73 2.3 SSW 6 9 3 5 - - 0.0
27/10:30am 11.1 9.3 7.1 76 2.0 S 6 9 3 5 - - 0.0
27/10:20am 11.1 9.6 6.7 74 2.2 SSW 4 6 2 3 - - 0.0
27/10:10am 10.8 8.8 7.0 77 1.9 SSW 7 7 4 4 - - 0.0
27/10:00am 11.1 9.2 6.8 75 2.1 SSW 6 7 3 4 - - 0.0
27/09:50am 10.8 9.3 6.9 77 1.9 SW 4 6 2 3 - - 0.0
27/09:40am 10.0 8.5 6.7 80 1.6 SW 4 6 2 3 - - 0.0
27/09:30am 9.3 7.8 6.6 83 1.3 WSW 4 4 2 2 - - 0.0
27/09:20am 9.4 7.9 6.8 84 1.3 SSW 4 4 2 2 - - 0.0
27/09:10am 9.4 7.9 6.8 84 1.3 WSW 4 4 2 2 - - 0.0
27/09:00am 8.7 7.7 7.3 91 0.7 WSW 2 4 1 2 - - 0.0
27/08:50am 7.6 6.5 7.0 96 0.3 SW 2 2 1 1 - - 0.0
27/08:40am 6.3 5.0 5.9 97 0.2 NNW 2 2 1 1 - - 0.0
27/08:30am 5.0 3.4 4.7 98 0.1 NE 2 2 1 1 - - 0.0
27/08:20am 4.6 3.0 4.4 99 0.1 NNE 2 4 1 2 - - 0.0
27/08:10am 4.3 2.2 4.1 99 0.1 NE 4 4 2 2 - - 0.0
27/08:00am 3.5 1.7 3.3 99 0.1 ENE 2 2 1 1 - - 0.0
27/07:50am 3.2 1.3 3.0 99 0.1 E 2 2 1 1 - - 0.0
27/07:40am 2.7 0.7 2.5 99 0.1 NE 2 2 1 1 - - 0.0
27/07:30am 2.5 0.5 2.3 99 0.1 NNW 2 2 1 1 - - 0.0
27/07:20am 2.1 0.0 1.9 99 0.1 N 2 2 1 1 - - 0.0
27/07:10am 2.2 0.1 1.9 98 0.1 SW 2 4 1 2 - - 0.0
27/07:00am 2.8 0.9 2.7 99 0.0 SSE 2 2 1 1 - - 0.0
27/06:50am 2.6 0.2 2.3 98 0.1 NE 4 6 2 3 - - 0.0
27/06:40am 3.3 0.7 3.1 99 0.1 ENE 6 6 3 3 - - 0.0
27/06:30am 3.1 0.4 2.9 99 0.1 NE 6 7 3 4 - - 0.0
27/06:20am 2.7 0.0 2.5 99 0.1 NE 6 7 3 4 - - 0.0
27/06:10am 3.7 1.2 3.5 99 0.1 NE 6 7 3 4 - - 0.0
27/06:00am 3.5 0.7 3.4 99 0.0 NE 7 7 4 4 - - 0.0
27/05:50am 3.2 0.4 3.0 99 0.1 NE 7 7 4 4 - - 0.0
27/05:40am 2.6 -0.3 2.4 99 0.1 NE 7 9 4 5 - - 0.0
27/05:30am 2.4 -0.6 2.2 99 0.1 NE 7 11 4 6 - - 0.0
27/05:20am 3.1 -0.5 2.9 99 0.1 NE 11 11 6 6 - - 0.0
27/05:10am 2.4 -0.6 2.2 99 0.1 NE 7 9 4 5 - - 0.0
27/05:00am 2.7 -0.2 2.4 98 0.1 NE 7 9 4 5 - - 0.0
27/04:50am 3.1 0.8 2.9 99 0.1 NE 4 6 2 3 - - 0.0
27/04:40am 1.9 -1.0 1.6 98 0.1 NE 6 6 3 3 - - 0.0
27/04:30am 2.5 -0.3 2.2 98 0.1 NE 6 6 3 3 - - 0.0
27/04:20am 3.6 0.8 3.3 98 0.1 NE 7 7 4 4 - - 0.0
27/04:10am 3.2 0.0 2.9 98 0.1 NE 9 9 5 5 - - 0.0
27/04:00am 2.6 -0.2 2.2 97 0.2 NE 6 7 3 4 - - 0.0
27/03:50am 3.2 0.0 2.9 98 0.1 NE 9 9 5 5 - - 0.0
27/03:40am 3.0 0.1 2.6 97 0.2 NE 7 9 4 5 - - 0.0
27/03:30am 3.8 1.0 3.4 97 0.2 NE 7 9 4 5 - - 0.0
27/03:20am 4.0 1.4 3.4 96 0.3 NE 6 7 3 4 - - 0.0
27/03:10am 4.6 2.5 4.0 96 0.3 NE 4 6 2 3 - - 0.0
27/03:00am 4.7 2.7 4.2 97 0.2 NE 4 6 2 3 - - 0.0
27/02:50am 5.2 3.6 4.5 95 0.3 NNE 2 4 1 2 - - 0.0
27/02:40am 5.5 3.6 4.8 95 0.3 NNE 4 7 2 4 - - 0.0
27/02:30am 5.7 3.3 5.1 96 0.3 NE 7 11 4 6 - - 0.0
27/02:20am 5.7 4.2 4.9 95 0.4 NNE 2 6 1 3 - - 0.0
27/02:10am 6.2 4.3 5.1 93 0.5 SSW 4 6 2 3 - - 0.0
27/02:00am 6.9 5.2 5.7 92 0.6 E 4 6 2 3 - - 0.0
27/01:50am 7.1 5.0 5.9 92 0.6 NE 6 6 3 3 - - 0.0
27/01:40am 7.5 5.9 6.2 91 0.6 ENE 4 4 2 2 - - 0.0
27/01:30am 7.7 6.1 6.3 91 0.7 NNE 4 6 2 3 - - 0.0
27/01:20am 8.3 6.3 6.3 87 1.0 E 6 7 3 4 - - 0.0
27/01:10am 8.5 6.2 5.9 84 1.2 E 7 7 4 4 - - 0.0
27/01:00am 8.7 6.0 5.8 82 1.4 E 9 9 5 5 - - 0.0
27/12:50am 8.6 5.9 5.8 82 1.3 E 9 9 5 5 - - 0.0
27/12:40am 8.4 5.4 5.8 84 1.2 E 11 11 6 6 - - 0.0
27/12:30am 7.7 5.5 6.3 91 0.7 ENE 7 11 4 6 - - 0.0
27/12:20am 7.8 5.9 6.8 93 0.5 NNE 6 6 3 3 - - 0.0
27/12:10am 8.1 7.0 6.9 92 0.6 E 2 2 1 1 - - 0.0
27/12:00am 8.2 6.7 6.9 91 0.6 ENE 4 6 2 3 - - 0.0
 
Date/Time
EST
Temp
°C
App
Temp
°C
Dew
Point
°C
Rel
Hum
%
Delta-T
°C
Wind Press
QNH
hPa
Press
MSL
hPa
Rain since
9am
mm
Dir  Spd
km/h
Gust
km/h
Spd
kts
Gust
kts
26/11:50pm 8.5 6.7 7.0 90 0.7 NE 6 7 3 4 - - 0.0
26/11:40pm 8.6 6.4 6.4 86 1.1 E 7 7 4 4 - - 0.0
26/11:30pm 8.3 6.8 6.8 90 0.7 ENE 4 7 2 4 - - 0.0
26/11:20pm 8.2 7.1 6.9 91 0.6 NNW 2 4 1 2 - - 0.0
26/11:10pm 8.1 6.6 6.9 92 0.6 NNE 4 6 2 3 - - 0.0
26/11:00pm 8.1 7.0 7.0 93 0.5 N 2 4 1 2 - - 0.0
26/10:50pm 8.1 6.6 6.9 92 0.6 NNE 4 4 2 2 - - 0.0
26/10:40pm 8.2 6.7 7.0 92 0.6 NNE 4 4 2 2 - - 0.0
26/10:30pm 8.4 6.5 6.9 90 0.7 ENE 6 7 3 4 - - 0.0
26/10:20pm 8.5 7.1 7.1 91 0.7 NE 4 6 2 3 - - 0.0
26/10:10pm 8.8 7.7 7.1 89 0.8 E 2 4 1 2 - - 0.0
26/10:00pm 9.1 8.0 6.9 86 1.1 SW 2 2 1 1 - - 0.0
26/09:50pm 9.2 7.7 6.7 84 1.2 S 4 6 2 3 - - 0.0
26/09:40pm 9.2 7.3 6.6 84 1.3 SSE 6 7 3 4 - - 0.0
26/09:30pm 9.1 7.7 7.1 87 1.0 WSW 4 6 2 3 - - 0.0
26/09:20pm 9.4 7.9 6.9 84 1.2 SSE 4 6 2 3 - - 0.0
26/09:10pm 9.3 7.8 6.8 84 1.2 ESE 4 6 2 3 - - 0.0
26/09:00pm 9.0 7.5 6.8 86 1.1 E 4 7 2 4 - - 0.0
26/08:50pm 8.5 6.7 7.0 90 0.7 ENE 6 7 3 4 - - 0.0
26/08:40pm 8.5 7.4 7.0 90 0.7 E 2 4 1 2 - - 0.0
26/08:30pm 8.6 7.5 6.9 89 0.8 ESE 2 2 1 1 - - 0.0
26/08:20pm 8.8 7.3 7.0 88 0.9 E 4 4 2 2 - - 0.0
26/08:10pm 8.9 7.4 6.9 87 1.0 E 4 6 2 3 - - 0.0
26/08:00pm 9.1 8.0 7.0 87 1.0 E 2 4 1 2 - - 0.0
26/07:50pm 9.2 7.7 6.9 85 1.1 SE 4 7 2 4 - - 0.0
26/07:40pm 9.3 7.8 6.8 84 1.2 SE 4 6 2 3 - - 0.0
26/07:30pm 9.4 7.9 6.7 83 1.3 SSE 4 7 2 4 - - 0.0
26/07:20pm 9.4 7.8 6.5 82 1.4 SE 4 6 2 3 - - 0.0
26/07:10pm 9.3 7.4 6.6 83 1.3 SE 6 6 3 3 - - 0.0
26/07:00pm 9.4 7.5 6.9 84 1.2 S 6 7 3 4 - - 0.0
26/06:50pm 9.6 8.0 6.3 80 1.6 SE 4 7 2 4 - - 0.0
26/06:40pm 9.5 7.5 6.2 80 1.6 ESE 6 7 3 4 - - 0.0
26/06:30pm 9.3 7.7 6.3 81 1.4 E 4 6 2 3 - - 0.0
26/06:20pm 9.2 7.2 6.2 81 1.4 SE 6 7 3 4 - - 0.0
26/06:10pm 9.2 7.3 6.5 83 1.3 SE 6 7 3 4 - - 0.0
26/06:00pm 9.7 8.1 6.4 80 1.6 SE 4 6 2 3 - - 0.0
26/05:50pm 10.0 7.8 6.4 78 1.7 ESE 7 11 4 6 - - 0.0
26/05:40pm 10.1 7.6 6.6 79 1.7 SE 9 11 5 6 - - 0.0
26/05:30pm 10.5 8.0 6.7 77 1.9 ESE 9 11 5 6 - - 0.0
26/05:20pm 10.7 8.2 6.6 76 2.0 ESE 9 11 5 6 - - 0.0
26/05:10pm 11.0 8.1 6.6 74 2.2 SE 11 13 6 7 - - 0.0
26/05:00pm 11.1 8.3 6.8 75 2.1 SE 11 13 6 7 - - 0.0
26/04:50pm 11.3 8.5 6.9 74 2.2 SE 11 13 6 7 - - 0.0
26/04:40pm 11.8 9.4 7.1 73 2.3 SE 9 13 5 7 - - 0.0
26/04:30pm 11.8 9.4 6.8 71 2.5 SSE 9 13 5 7 - - 0.0
26/04:20pm 11.9 9.0 6.6 70 2.6 SE 11 15 6 8 - - 0.0
26/04:10pm 12.3 9.8 6.4 67 2.9 ESE 9 15 5 8 - - 0.0
26/04:00pm 12.1 9.2 6.4 68 2.8 SE 11 17 6 9 - - 0.0
26/03:50pm 12.0 9.1 6.3 68 2.8 SE 11 13 6 7 - - 0.0
26/03:40pm 12.0 9.0 6.2 67 2.8 SE 11 13 6 7 - - 0.0
26/03:30pm 12.3 9.7 6.3 67 3.0 SE 9 13 5 7 - - 0.0
26/03:20pm 12.3 9.3 6.0 65 3.1 SE 11 17 6 9 - - 0.0
26/03:10pm 12.2 9.1 5.7 64 3.2 SE 11 15 6 8 - - 0.0
26/03:00pm 12.1 7.5 5.4 63 3.2 ESE 19 20 10 11 - - 0.0
26/02:50pm 12.5 8.3 5.6 63 3.4 SE 17 22 9 12 - - 0.0
26/02:40pm 12.5 7.7 5.7 63 3.3 SE 20 26 11 14 - - 0.0
26/02:30pm 12.6 8.6 6.6 67 3.0 ESE 17 22 9 12 - - 0.0
26/02:20pm 12.0 8.0 6.7 70 2.6 ESE 17 24 9 13 - - 0.0
26/02:10pm 12.0 7.7 6.9 71 2.5 SE 19 24 10 13 - - 0.0
26/02:00pm 12.3 7.4 7.1 70 2.6 ESE 22 26 12 14 - - 0.0
26/01:50pm 12.2 7.4 7.5 73 2.4 SE 22 24 12 13 - - 0.0
26/01:40pm 13.3 8.9 7.6 68 2.9 ESE 20 24 11 13 - - 0.0
26/01:30pm 12.5 8.9 8.2 75 2.2 SE 17 20 9 11 - - 0.0
26/01:20pm 12.6 8.8 9.0 79 1.9 SE 19 22 10 12 - - 0.0
26/01:10pm 12.9 9.7 8.6 75 2.2 SE 15 20 8 11 - - 0.0
26/01:00pm 12.7 8.9 8.9 78 2.0 SSE 19 20 10 11 - - 0.0
26/12:50pm 12.5 9.1 9.2 80 1.7 SSE 17 20 9 11 - - 0.0
26/12:40pm 12.4 8.7 9.5 82 1.5 S 19 20 10 11 - - 0.0
26/12:30pm 13.1 9.4 9.4 78 2.0 S 19 22 10 12 - - 0.0
26/12:20pm 13.8 10.9 9.5 75 2.3 SE 15 19 8 10 - - 0.0
26/12:10pm 12.9 9.7 8.6 75 2.2 SE 15 20 8 11 - - 0.0
26/12:00pm 12.2 9.1 8.8 80 1.8 SSE 15 19 8 10 - - 0.0
26/11:50am 12.6 10.0 9.2 80 1.8 SSE 13 19 7 10 - - 0.0
26/11:40am 12.4 9.3 9.0 80 1.8 SSE 15 17 8 9 - - 0.0
26/11:30am 12.2 9.2 9.1 81 1.6 SSE 15 20 8 11 - - 0.0
26/11:20am 12.3 9.6 9.0 80 1.7 SSE 13 19 7 10 - - 0.0
26/11:10am 12.5 9.4 8.9 79 1.9 SE 15 19 8 10 - - 0.0
26/11:00am 12.3 9.2 8.7 79 1.9 SSE 15 22 8 12 - - 0.0
26/10:50am 12.0 9.3 8.8 81 1.7 SSE 13 19 7 10 - - 0.0
26/10:40am 11.6 8.9 8.8 83 1.4 S 13 19 7 10 - - 0.0
26/10:30am 11.5 8.4 8.7 83 1.4 SSE 15 19 8 10 - - 0.0
26/10:20am 11.5 9.1 8.7 83 1.4 SSE 11 13 6 7 - - 0.0
26/10:10am 11.3 8.8 8.4 82 1.5 SSE 11 15 6 8 - - 0.0
26/10:00am 11.3 8.5 8.5 83 1.4 SSE 13 15 7 8 - - 0.0
26/09:50am 11.1 9.1 8.5 84 1.3 SSE 9 15 5 8 - - 0.0
26/09:40am 10.8 7.5 8.0 83 1.4 SSE 15 19 8 10 - - 0.0
26/09:30am 10.7 7.8 8.0 83 1.4 SSE 13 15 7 8 - - 0.0
26/09:20am 10.5 7.9 7.9 84 1.3 S 11 13 6 7 - - 0.0
26/09:10am 10.3 7.7 7.9 85 1.2 S 11 15 6 8 - - 0.0
26/09:00am 10.1 7.5 7.8 86 1.2 S 11 15 6 8 - - 0.0
26/08:50am 9.6 7.9 7.5 87 1.0 ESE 6 13 3 7 - - 0.0
26/08:40am 8.7 7.5 6.5 86 1.1 N 2 4 1 2 - - 0.0
26/08:30am 8.1 6.9 6.3 88 0.9 N 2 2 1 1 - - 0.0
26/08:20am 7.7 6.4 6.0 89 0.8 NNE 2 4 1 2 - - 0.0
26/08:10am 7.3 6.0 5.9 91 0.7 ESE 2 2 1 1 - - 0.0
26/08:00am 6.8 5.5 5.8 93 0.5 NE 2 2 1 1 - - 0.0
26/07:50am 6.5 5.1 5.7 95 0.4 ENE 2 4 1 2 - - 0.0
26/07:40am 6.2 4.8 5.6 96 0.3 E 2 2 1 1 - - 0.0
26/07:30am 5.8 4.3 5.2 96 0.3 E 2 2 1 1 - - 0.0
26/07:20am 5.6 4.1 5.0 96 0.3 NE 2 4 1 2 - - 0.0
26/07:10am 5.6 4.1 5.0 96 0.3 E 2 2 1 1 - - 0.0
26/07:00am 5.4 3.9 4.8 96 0.3 NE 2 4 1 2 - - 0.0
26/06:50am 5.4 3.8 4.6 95 0.4 NNE 2 4 1 2 - - 0.0
26/06:40am 5.8 4.3 4.9 94 0.4 ENE 2 2 1 1 - - 0.0
26/06:30am 5.9 4.4 5.1 95 0.4 N 2 4 1 2 - - 0.0
26/06:20am 5.7 4.2 4.9 95 0.4 WNW 2 4 1 2 - - 0.0
26/06:10am 5.9 4.4 5.0 94 0.4 SSE 2 4 1 2 - - 0.0
26/06:00am 6.2 4.7 5.2 93 0.5 E 2 4 1 2 - - 0.0
26/05:50am 6.2 4.7 5.1 93 0.5 SE 2 4 1 2 - - 0.0
26/05:40am 6.2 4.7 5.1 93 0.5 WSW 2 2 1 1 - - 0.0
26/05:30am 6.4 4.9 5.2 92 0.6 SW 2 4 1 2 - - 0.0
26/05:20am 6.3 4.5 5.2 93 0.5 SSW 4 6 2 3 - - 0.0
26/05:10am 6.4 4.5 5.1 91 0.6 SSW 4 6 2 3 - - 0.0
26/05:00am 6.5 4.6 5.0 90 0.7 SSW 4 6 2 3 - - 0.0
26/04:50am 6.6 4.7 5.0 89 0.7 SW 4 6 2 3 - - 0.0
26/04:40am 6.6 4.7 5.0 89 0.7 SW 4 4 2 2 - - 0.0
26/04:30am 6.7 4.4 5.0 89 0.8 SSW 6 9 3 5 - - 0.0
26/04:20am 6.8 4.5 4.9 88 0.9 SSW 6 9 3 5 - - 0.0
26/04:10am 6.7 4.8 4.9 88 0.8 SW 4 6 2 3 - - 0.0
26/04:00am 6.6 4.3 4.7 88 0.9 SW 6 7 3 4 - - 0.0
26/03:50am 6.6 4.7 4.7 88 0.9 SSW 4 6 2 3 - - 0.0
26/03:40am 6.6 5.0 4.4 86 1.0 W 2 4 1 2 - - 0.0
26/03:30am 6.4 4.8 4.3 86 0.9 SSW 2 4 1 2 - - 0.0
26/03:20am 6.1 4.0 4.1 87 0.9 SW 4 6 2 3 - - 0.0
26/03:10am 5.4 3.3 4.1 91 0.6 W 4 6 2 3 - - 0.0
26/03:00am 5.3 2.8 3.9 91 0.6 WNW 6 6 3 3 - - 0.0
26/02:50am 5.8 3.8 4.2 89 0.7 SW 4 6 2 3 - - 0.0
26/02:40am 6.6 4.6 4.3 85 1.0 SSE 4 6 2 3 - - 0.0
26/02:30am 7.0 4.4 4.2 82 1.3 SSE 7 11 4 6 - - 0.0
26/02:20am 6.9 4.3 4.1 82 1.3 S 7 9 4 5 - - 0.0
26/02:10am 6.1 3.6 3.9 86 1.0 S 6 7 3 4 - - 0.0
26/02:00am 5.4 3.3 3.7 89 0.7 S 4 6 2 3 - - 0.0
26/01:50am 5.4 3.2 3.2 86 1.0 S 4 6 2 3 - - 0.0
26/01:40am 5.2 3.0 3.3 87 0.8 SSW 4 6 2 3 - - 0.0
26/01:30am 5.0 2.4 3.4 89 0.7 S 6 7 3 4 - - 0.0
26/01:20am 5.0 2.8 3.2 88 0.8 SE 4 6 2 3 - - 0.0
26/01:10am 5.3 2.7 3.2 86 0.9 SSE 6 7 3 4 - - 0.0
26/01:00am 5.5 2.9 3.3 86 1.0 S 6 6 3 3 - - 0.0
26/12:50am 5.4 2.8 3.3 86 0.9 S 6 7 3 4 - - 0.0
26/12:40am 5.9 3.4 3.6 85 1.0 SSE 6 7 3 4 - - 0.0
26/12:30am 6.6 4.1 3.7 82 1.3 SE 6 6 3 3 - - 0.0
26/12:20am 6.9 4.4 3.5 79 1.5 SE 6 6 3 3 - - 0.0
26/12:10am 7.2 5.0 3.6 78 1.6 SE 4 6 2 3 - - 0.0
26/12:00am 7.1 4.6 3.7 79 1.5 SSE 6 6 3 3 - - 0.0
 
Date/Time
EST
Temp
°C
App
Temp
°C
Dew
Point
°C
Rel
Hum
%
Delta-T
°C
Wind Press
QNH
hPa
Press
MSL
hPa
Rain since
9am
mm
Dir  Spd
km/h
Gust
km/h
Spd
kts
Gust
kts
25/11:50pm 7.3 4.2 3.7 78 1.6 S 9 15 5 8 - - 0.0
25/11:40pm 7.3 3.8 3.7 78 1.6 S 11 13 6 7 - - 0.0
25/11:30pm 7.4 4.3 3.8 78 1.6 S 9 9 5 5 - - 0.0
25/11:20pm 7.6 5.1 3.9 77 1.7 SSE 6 7 3 4 - - 0.0
25/11:10pm 7.8 4.8 3.9 76 1.8 S 9 11 5 6 - - 0.0
25/11:00pm 7.9 4.9 4.1 77 1.7 S 9 13 5 7 - - 0.0
25/10:50pm 8.2 5.2 4.2 76 1.8 S 9 13 5 7 - - 0.0
25/10:40pm 8.4 4.7 4.4 76 1.8 S 13 19 7 10 - - 0.0
25/10:30pm 8.7 4.6 4.5 75 1.9 S 15 19 8 10 - - 0.0
25/10:20pm 8.9 5.3 4.9 76 1.9 S 13 17 7 9 - - 0.0
25/10:10pm 9.0 5.0 4.9 75 1.9 S 15 17 8 9 - - 0.0
25/10:00pm 9.1 5.1 5.0 75 1.9 S 15 19 8 10 - - 0.0
25/09:50pm 9.2 4.5 5.2 76 1.9 S 19 20 10 11 - - 0.0
25/09:40pm 9.3 5.0 5.2 75 1.9 S 17 20 9 11 - - 0.0
25/09:30pm 9.4 4.7 5.2 75 2.0 S 19 28 10 15 - - 0.0
25/09:20pm 9.4 5.1 5.4 76 1.9 S 17 20 9 11 - - 0.0
25/09:10pm 9.4 6.3 5.5 76 1.8 S 11 13 6 7 - - 0.0
25/09:00pm 9.5 5.6 5.3 75 2.0 S 15 19 8 10 - - 0.0
25/08:50pm 9.5 5.6 5.3 75 2.0 S 15 19 8 10 - - 0.0
25/08:40pm 9.5 6.0 5.3 75 2.0 S 13 19 7 10 - - 0.0
25/08:30pm 9.5 6.4 5.4 75 1.9 S 11 13 6 7 - - 0.0
25/08:20pm 9.6 6.5 5.5 75 1.9 S 11 15 6 8 - - 0.0
25/08:10pm 9.6 6.5 5.4 75 2.0 S 11 13 6 7 - - 0.0
25/08:00pm 9.6 6.5 5.6 76 1.9 SSE 11 15 6 8 - - 0.0
25/07:50pm 9.7 6.7 5.8 77 1.9 SSE 11 15 6 8 - - 0.0
25/07:40pm 9.8 6.7 5.7 75 2.0 S 11 17 6 9 - - 0.0
25/07:30pm 9.8 6.8 5.8 76 1.9 S 11 15 6 8 - - 0.0
25/07:20pm 9.8 7.2 5.9 77 1.9 S 9 11 5 6 - - 0.0
25/07:10pm 9.8 7.2 5.9 77 1.9 SSE 9 11 5 6 - - 0.0
25/07:00pm 9.8 7.6 6.0 77 1.8 SSE 7 9 4 5 - - 0.0
25/06:50pm 9.8 7.6 6.0 77 1.8 SSE 7 9 4 5 - - 0.0
25/06:40pm 9.7 7.1 6.0 78 1.8 S 9 11 5 6 - - 0.0
25/06:30pm 9.8 6.9 6.3 79 1.7 S 11 13 6 7 - - 0.0
25/06:20pm 10.0 7.4 6.2 77 1.8 SSE 9 13 5 7 - - 0.0
25/06:10pm 10.1 7.5 6.3 77 1.8 SE 9 13 5 7 - - 0.0
25/06:00pm 10.2 8.0 6.1 76 2.0 SE 7 11 4 6 - - 0.0
25/05:50pm 10.3 7.7 6.1 75 2.0 SSE 9 11 5 6 - - 0.0
25/05:40pm 10.3 8.1 6.0 75 2.1 SSE 7 9 4 5 - - 0.0
25/05:30pm 10.3 8.1 6.1 75 2.0 SSE 7 11 4 6 - - 0.0
25/05:20pm 10.3 7.7 6.0 75 2.1 S 9 11 5 6 - - 0.0
25/05:10pm 10.4 7.8 6.0 74 2.1 S 9 13 5 7 - - 0.0
25/05:00pm 10.4 7.4 6.0 74 2.1 S 11 17 6 9 - - 0.0
25/04:50pm 10.5 6.7 6.0 74 2.2 S 15 19 8 10 - - 0.0
25/04:40pm 10.8 6.2 5.8 71 2.4 S 19 26 10 14 - - 0.0
25/04:30pm 10.8 6.2 5.8 71 2.4 S 19 22 10 12 - - 0.0
25/04:20pm 10.9 6.7 5.7 70 2.5 S 17 20 9 11 - - 0.0
25/04:10pm 11.0 7.2 5.9 71 2.5 S 15 19 8 10 - - 0.0
25/04:00pm 11.1 7.7 6.0 71 2.5 S 13 17 7 9 - - 0.0
25/03:50pm 11.0 6.8 5.7 70 2.6 S 17 20 9 11 - - 0.0
25/03:40pm 11.1 6.9 5.8 70 2.6 S 17 20 9 11 - - 0.0
25/03:30pm 11.2 6.6 5.7 69 2.7 S 19 22 10 12 - - 0.0
25/03:20pm 11.2 6.6 5.7 69 2.7 S 19 22 10 12 - - 0.0
25/03:10pm 11.4 6.9 5.9 69 2.7 S 19 20 10 11 - - 0.0

Other formats

Comma delimited format used in spreadsheet applications
http://www.bom.gov.au/fwo/IDN60801/IDN60801.99764.axf

JavaScript Object Notation format (JSON) in row-major order
http://www.bom.gov.au/fwo/IDN60801/IDN60801.99764.json

Data quality

Most of these data are generated automatically and are frequently updated. Quality checks on data are not normally performed. It is possible for incorrect values to appear. Refer to information at About Latest Weather Observations and please check the disclaimer before using these data.